Time;durP1;ratioP1;P1;durP2;ratioP2;P2;SDS_P1;SDS_P2;PMS_P1;PMS_P2;Temp;Humidity;BMP_temperature;BMP_pressure;BME280_temperature;BME280_humidity;BME280_pressure;Samples;Min_cycle;Max_cycle;Signal;HPM_P1;HPM_P2
2023/10/31 00:01:20;;;;;;;0.30;0.30;;;;;;;8.74;100.00;99536.56;5112317;28;20035;-54
2023/10/31 00:03:46;;;;;;;0.30;0.30;;;;;;;8.75;100.00;99540.84;5112740;28;20493;-53
2023/10/31 00:06:11;;;;;;;0.28;0.28;;;;;;;8.79;100.00;99536.63;5112770;28;20032;-54
2023/10/31 00:08:36;;;;;;;0.20;0.20;;;;;;;8.81;100.00;99537.53;5111692;28;20099;-53
2023/10/31 00:11:01;;;;;;;0.20;0.20;;;;;;;8.81;100.00;99534.94;5112734;28;20035;-54
2023/10/31 00:13:27;;;;;;;0.20;0.20;;;;;;;8.80;100.00;99549.47;5112740;28;20031;-54
2023/10/31 00:15:52;;;;;;;0.22;0.22;;;;;;;8.79;100.00;99545.22;5111892;28;20475;-52
2023/10/31 00:18:17;;;;;;;0.30;0.30;;;;;;;8.77;100.00;99558.88;5112993;28;20035;-54
2023/10/31 00:20:43;;;;;;;0.20;0.20;;;;;;;8.74;100.00;99562.25;5112373;28;20035;-54
2023/10/31 00:23:08;;;;;;;0.30;0.30;;;;;;;8.73;100.00;99563.09;5111998;28;20071;-54
2023/10/31 00:25:33;;;;;;;0.30;0.30;;;;;;;8.72;100.00;99567.34;5112596;28;20111;-53
2023/10/31 00:27:58;;;;;;;0.20;0.20;;;;;;;8.71;100.00;99559.63;5112349;28;20019;-53
2023/10/31 00:30:24;;;;;;;0.30;0.30;;;;;;;8.71;100.00;99559.63;5112026;28;20455;-54
2023/10/31 00:32:49;;;;;;;0.20;0.20;;;;;;;8.66;100.00;99559.56;5112539;28;20111;-54
2023/10/31 00:35:14;;;;;;;0.25;0.25;;;;;;;8.67;100.00;99561.25;5111946;28;20467;-52
2023/10/31 00:37:40;;;;;;;0.30;0.30;;;;;;;8.66;100.00;99561.25;5112436;28;20043;-53
2023/10/31 00:40:11;;;;;;;0.20;0.20;;;;;;;8.64;100.00;99573.22;5116007;28;20067;-53
2023/10/31 00:42:40;;;;;;;0.30;0.30;;;;;;;8.64;100.00;99573.22;5114945;28;20070;-53
2023/10/31 00:45:06;;;;;;;0.20;0.20;;;;;;;8.62;100.00;99569.75;5116351;28;20020;-53
2023/10/31 00:47:31;;;;;;;0.20;0.20;;;;;;;8.59;100.00;99572.28;5116298;28;20020;-53
2023/10/31 00:49:57;;;;;;;0.20;0.20;;;;;;;8.59;100.00;99577.41;5114997;28;20077;-53
2023/10/31 00:52:22;;;;;;;0.30;0.30;;;;;;;8.59;100.00;99579.97;5116133;28;20037;-54
2023/10/31 00:54:47;;;;;;;0.28;0.28;;;;;;;8.61;100.00;99588.56;5115778;28;20062;-54
2023/10/31 00:57:13;;;;;;;0.30;0.30;;;;;;;8.57;100.00;99588.50;5115072;28;20490;-54
2023/10/31 00:59:39;;;;;;;0.30;0.30;;;;;;;8.60;100.00;99589.38;5115772;28;20030;-54
2023/10/31 01:02:04;;;;;;;0.28;0.28;;;;;;;8.60;100.00;99589.38;5116003;28;20027;-53
2023/10/31 01:04:31;;;;;;;0.20;0.20;;;;;;;8.60;100.00;99591.94;5115348;28;20413;-53
2023/10/31 01:06:56;;;;;;;0.30;0.30;;;;;;;8.61;100.00;99591.13;5115454;28;20466;-53
2023/10/31 01:09:22;;;;;;;0.20;0.20;;;;;;;8.61;100.00;99603.97;5115658;28;20061;-53
2023/10/31 01:11:47;;;;;;;0.20;0.20;;;;;;;8.59;100.00;99608.22;5114418;28;20039;-54
2023/10/31 01:14:12;;;;;;;0.32;0.32;;;;;;;8.60;100.00;99613.38;5116046;28;20355;-53
2023/10/31 01:16:39;;;;;;;0.22;0.22;;;;;;;8.59;100.00;99608.22;5115360;28;20032;-53
2023/10/31 01:19:05;;;;;;;0.30;0.30;;;;;;;8.57;100.00;99606.50;5114853;28;20030;-52
2023/10/31 01:21:30;;;;;;;0.30;0.30;;;;;;;8.56;100.00;99609.88;5115542;28;20031;-54
2023/10/31 01:23:55;;;;;;;0.30;0.30;;;;;;;8.59;100.00;99613.34;5115161;28;20023;-53
2023/10/31 01:26:20;;;;;;;0.20;0.20;;;;;;;8.58;100.00;99599.63;5114631;28;20051;-53
2023/10/31 01:28:46;;;;;;;0.28;0.28;;;;;;;8.57;100.00;99613.31;5115224;28;20029;-54
2023/10/31 01:31:11;;;;;;;0.30;0.30;;;;;;;8.57;100.00;99611.63;5115355;28;20024;-54
2023/10/31 01:33:36;;;;;;;0.30;0.30;;;;;;;8.57;100.00;99609.06;5114260;28;20037;-53
2023/10/31 01:36:02;;;;;;;0.30;0.30;;;;;;;8.58;100.00;99615.03;5115214;28;20027;-54
2023/10/31 01:38:30;;;;;;;0.20;0.20;;;;;;;8.57;100.00;99614.19;5114464;28;20027;-53
2023/10/31 01:40:55;;;;;;;0.30;0.30;;;;;;;8.57;100.00;99616.75;5114684;28;20073;-54
2023/10/31 01:43:34;;;;;;;0.30;0.30;;;;;;;8.59;100.00;99610.78;5114985;28;20044;-54
2023/10/31 01:46:00;;;;;;;0.22;0.22;;;;;;;8.59;100.00;99610.78;5114613;28;20059;-54
2023/10/31 01:48:28;;;;;;;0.20;0.20;;;;;;;8.60;100.00;99612.50;5114815;28;20043;-54
2023/10/31 01:50:54;;;;;;;0.20;0.20;;;;;;;8.60;100.00;99610.81;5113500;28;20522;-54
2023/10/31 01:53:20;;;;;;;0.30;0.30;;;;;;;8.62;100.00;99610.84;5114047;28;20031;-53
2023/10/31 01:55:46;;;;;;;0.20;0.20;;;;;;;8.63;100.00;99607.44;5114758;28;20024;-53
2023/10/31 01:58:12;;;;;;;0.30;0.30;;;;;;;8.62;100.00;99608.25;5114747;28;20028;-53
2023/10/31 02:00:41;;;;;;;0.30;0.30;;;;;;;8.63;100.00;99610.84;5113747;28;20028;-53
2023/10/31 02:03:07;;;;;;;0.20;0.20;;;;;;;8.63;100.00;99612.56;5114682;28;20024;-54
2023/10/31 02:05:34;;;;;;;0.30;0.30;;;;;;;8.63;100.00;99617.72;5114634;28;20026;-53
2023/10/31 02:08:00;;;;;;;0.20;0.20;;;;;;;8.63;100.00;99622.84;5113730;28;20042;-53
2023/10/31 02:10:25;;;;;;;0.20;0.20;;;;;;;8.64;100.00;99627.16;5114693;28;20020;-53
2023/10/31 02:12:50;;;;;;;0.30;0.30;;;;;;;8.65;100.00;99626.28;5114353;28;20140;-54
2023/10/31 02:15:15;;;;;;;0.30;0.30;;;;;;;8.64;100.00;99629.72;5113773;28;20390;-53
2023/10/31 02:17:41;;;;;;;0.30;0.30;;;;;;;8.64;100.00;99632.28;5114229;28;20069;-54
2023/10/31 02:20:07;;;;;;;0.30;0.30;;;;;;;8.64;100.00;99629.72;5114231;28;20459;-54
2023/10/31 02:22:32;;;;;;;0.30;0.30;;;;;;;8.67;100.00;99629.75;5113569;28;20139;-53
2023/10/31 02:24:57;;;;;;;0.20;0.20;;;;;;;8.69;100.00;99625.53;5113797;28;20125;-53
2023/10/31 02:27:22;;;;;;;0.30;0.30;;;;;;;8.71;100.00;99616.13;5114348;28;20033;-53
2023/10/31 02:29:48;;;;;;;0.30;0.30;;;;;;;8.72;100.00;99623.84;5113513;28;20023;-53
2023/10/31 02:32:13;;;;;;;0.20;0.20;;;;;;;8.74;100.00;99626.47;5114184;28;20036;-54
2023/10/31 02:34:38;;;;;;;0.30;0.30;;;;;;;8.75;100.00;99623.03;5113279;28;20023;-53
2023/10/31 02:37:05;;;;;;;0.20;0.20;;;;;;;8.76;100.00;99624.78;5113883;28;20118;-53
2023/10/31 02:39:30;;;;;;;0.20;0.20;;;;;;;8.78;100.00;99627.38;5114201;28;20049;-53
2023/10/31 02:41:55;;;;;;;0.30;0.30;;;;;;;8.79;100.00;99624.84;5112795;28;20079;-53
2023/10/31 02:44:21;;;;;;;0.30;0.30;;;;;;;8.80;100.00;99629.13;5114038;28;20043;-53
2023/10/31 02:46:46;;;;;;;0.20;0.20;;;;;;;8.81;100.00;99630.84;5113446;28;20027;-53
2023/10/31 02:49:11;;;;;;;0.30;0.30;;;;;;;8.83;100.00;99631.75;5113042;28;20482;-54
2023/10/31 02:51:36;;;;;;;0.25;0.25;;;;;;;8.85;100.00;99639.50;5113256;28;20092;-54
2023/10/31 02:54:02;;;;;;;0.30;0.30;;;;;;;8.87;100.00;99638.69;5113918;28;20441;-53
2023/10/31 02:56:27;;;;;;;0.30;0.30;;;;;;;8.87;100.00;99637.78;5112945;28;20028;-53
2023/10/31 02:58:52;;;;;;;0.40;0.40;;;;;;;8.88;100.00;99639.53;5113516;28;20474;-54
2023/10/31 03:01:19;;;;;;;0.25;0.25;;;;;;;8.90;100.00;99640.44;5113477;28;20020;-54
2023/10/31 03:03:45;;;;;;;0.20;0.20;;;;;;;8.92;100.00;99650.72;5112448;28;20030;-53
2023/10/31 03:06:10;;;;;;;0.25;0.25;;;;;;;8.92;100.00;99656.72;5113547;28;20019;-54
2023/10/31 03:08:36;;;;;;;0.20;0.20;;;;;;;8.94;100.00;99659.34;5113406;28;20372;-53
2023/10/31 03:11:01;;;;;;;0.20;0.20;;;;;;;8.94;100.00;99664.47;5112547;28;20107;-55
2023/10/31 03:13:26;;;;;;;0.20;0.20;;;;;;;8.94;100.00;99655.06;5113559;28;20084;-55
2023/10/31 03:15:52;;;;;;;0.20;0.20;;;;;;;8.97;100.00;99667.09;5113221;28;20098;-54
2023/10/31 03:18:18;;;;;;;0.30;0.30;;;;;;;8.95;100.00;99671.31;5112639;28;20019;-55
2023/10/31 03:20:45;;;;;;;0.30;0.30;;;;;;;8.95;100.00;99677.34;5112941;28;20024;-55
2023/10/31 03:23:11;;;;;;;0.28;0.28;;;;;;;8.93;100.00;99665.31;5113284;28;20018;-54
2023/10/31 03:25:36;;;;;;;0.20;0.20;;;;;;;8.92;100.00;99677.28;5112178;28;20024;-54
2023/10/31 03:28:02;;;;;;;0.20;0.20;;;;;;;8.92;100.00;99676.44;5113144;28;20020;-53
2023/10/31 03:30:27;;;;;;;0.20;0.20;;;;;;;8.90;100.00;99682.41;5113292;28;20038;-54
2023/10/31 03:32:52;;;;;;;0.20;0.20;;;;;;;8.90;100.00;99684.97;5112247;28;20024;-54
2023/10/31 03:35:17;;;;;;;0.20;0.20;;;;;;;8.92;100.00;99681.56;5113085;28;20024;-55
2023/10/31 03:37:43;;;;;;;0.30;0.30;;;;;;;8.92;100.00;99694.41;5113081;28;20028;-53
2023/10/31 03:40:09;;;;;;;0.20;0.20;;;;;;;8.90;100.00;99700.38;5112506;28;20027;-54
2023/10/31 03:42:34;;;;;;;0.20;0.20;;;;;;;8.90;100.00;99695.25;5112748;28;20403;-54
2023/10/31 03:44:59;;;;;;;0.20;0.20;;;;;;;8.92;100.00;99696.97;5112261;28;20023;-54
2023/10/31 03:47:24;;;;;;;0.20;0.20;;;;;;;8.90;100.00;99697.81;5113205;28;20032;-54
2023/10/31 03:49:50;;;;;;;0.20;0.20;;;;;;;8.90;100.00;99705.53;5112728;28;20098;-54
2023/10/31 03:52:15;;;;;;;0.30;0.30;;;;;;;8.90;100.00;99708.09;5112559;28;20031;-54
2023/10/31 03:54:40;;;;;;;0.20;0.20;;;;;;;8.90;100.00;99715.81;5112873;28;20471;-55
2023/10/31 03:57:06;;;;;;;0.30;0.30;;;;;;;8.90;100.00;99713.22;5113068;28;20020;-54
2023/10/31 03:59:31;;;;;;;0.20;0.20;;;;;;;8.90;100.00;99718.38;5112167;28;20019;-54
2023/10/31 04:01:56;;;;;;;0.20;0.20;;;;;;;8.90;100.00;99723.50;5112665;28;20424;-55
2023/10/31 04:04:21;;;;;;;0.20;0.20;;;;;;;8.92;100.00;99720.97;5112914;28;20436;-55
2023/10/31 04:06:47;;;;;;;0.28;0.28;;;;;;;8.90;100.00;99726.06;5111721;28;20032;-55
2023/10/31 04:09:13;;;;;;;0.17;0.17;;;;;;;8.92;100.00;99732.97;5112787;28;20019;-54
2023/10/31 04:11:39;;;;;;;0.20;0.20;;;;;;;8.90;100.00;99733.78;5112740;28;20023;-54
2023/10/31 04:14:05;;;;;;;0.20;0.20;;;;;;;8.90;100.00;99733.78;5114135;28;20073;-54
2023/10/31 04:16:31;;;;;;;0.30;0.30;;;;;;;8.92;100.00;99732.97;5116887;28;20051;-54
2023/10/31 04:18:56;;;;;;;0.25;0.25;;;;;;;8.92;100.00;99732.97;5116447;28;20420;-54
2023/10/31 04:21:21;;;;;;;0.20;0.20;;;;;;;8.90;100.00;99736.34;5115930;28;20489;-54
2023/10/31 04:23:46;;;;;;;0.20;0.20;;;;;;;8.90;100.00;99743.22;5116534;28;20036;-54
2023/10/31 04:26:12;;;;;;;0.30;0.30;;;;;;;8.91;100.00;99747.53;5116758;28;20460;-53
2023/10/31 04:28:37;;;;;;;0.20;0.20;;;;;;;8.92;100.00;99743.25;5115436;28;20023;-55
2023/10/31 04:31:04;;;;;;;0.20;0.20;;;;;;;8.89;100.00;99747.47;5116332;28;20035;-53
2023/10/31 04:33:29;;;;;;;0.20;0.20;;;;;;;8.91;100.00;99737.25;5116369;28;20099;-52
2023/10/31 04:35:55;;;;;;;0.30;0.30;;;;;;;8.88;100.00;99748.34;5115233;28;20058;-53
2023/10/31 04:38:20;;;;;;;0.30;0.30;;;;;;;8.90;100.00;99756.06;5116623;28;20019;-53
2023/10/31 04:40:45;;;;;;;0.20;0.20;;;;;;;8.88;100.00;99760.28;5116030;28;20031;-53
2023/10/31 04:43:10;;;;;;;0.30;0.30;;;;;;;8.89;100.00;99765.47;5115372;28;20438;-53
2023/10/31 04:45:36;;;;;;;0.20;0.20;;;;;;;8.85;100.00;99773.94;5115999;28;20038;-53
2023/10/31 04:48:01;;;;;;;0.20;0.20;;;;;;;8.84;100.00;99767.06;5116170;28;20020;-54
2023/10/31 04:50:26;;;;;;;0.30;0.30;;;;;;;8.85;100.00;99773.94;5115159;28;20368;-53
2023/10/31 04:52:51;;;;;;;0.20;0.20;;;;;;;8.84;100.00;99774.78;5115971;28;20031;-53
2023/10/31 04:55:17;;;;;;;0.30;0.30;;;;;;;8.83;100.00;99780.78;5115795;28;20386;-53
2023/10/31 04:57:42;;;;;;;0.20;0.20;;;;;;;8.82;100.00;99786.75;5115232;28;20023;-53
2023/10/31 05:00:08;;;;;;;0.20;0.20;;;;;;;8.81;100.00;99784.16;5115863;28;20023;-54
2023/10/31 05:02:33;;;;;;;0.20;0.20;;;;;;;8.79;100.00;99784.13;5115541;28;20455;-54
2023/10/31 05:04:59;;;;;;;0.30;0.30;;;;;;;8.77;100.00;99785.78;5115306;28;20115;-54
2023/10/31 05:07:24;;;;;;;0.20;0.20;;;;;;;8.74;100.00;99785.75;5115940;28;20462;-53
2023/10/31 05:09:50;;;;;;;0.20;0.20;;;;;;;8.71;100.00;99790.81;5114771;28;20024;-52
2023/10/31 05:12:15;;;;;;;0.20;0.20;;;;;;;8.70;100.00;99794.19;5115729;28;20027;-53
2023/10/31 05:14:41;;;;;;;0.20;0.20;;;;;;;8.69;100.00;99793.34;5115209;28;20028;-53
2023/10/31 05:17:06;;;;;;;0.20;0.20;;;;;;;8.68;100.00;99791.59;5114862;28;20152;-53
2023/10/31 05:19:31;;;;;;;0.30;0.30;;;;;;;8.70;100.00;99789.06;5115364;28;20024;-54
2023/10/31 05:21:56;;;;;;;0.30;0.30;;;;;;;8.66;100.00;99782.13;5115312;28;20520;-54
2023/10/31 05:24:22;;;;;;;0.22;0.22;;;;;;;8.67;100.00;99779.59;5115050;28;20055;-54
2023/10/31 05:26:47;;;;;;;0.20;0.20;;;;;;;8.66;100.00;99777.88;5115288;28;20031;-54
2023/10/31 05:29:12;;;;;;;0.30;0.30;;;;;;;8.65;100.00;99786.41;5115535;28;20031;-53
2023/10/31 05:31:38;;;;;;;0.30;0.30;;;;;;;8.64;100.00;99783.81;5114136;28;20038;-54
2023/10/31 05:34:06;;;;;;;0.20;0.20;;;;;;;8.63;100.00;99782.94;5115138;28;20029;-53
2023/10/31 05:36:32;;;;;;;0.30;0.30;;;;;;;8.63;100.00;99792.34;5115189;28;20375;-53
2023/10/31 05:38:57;;;;;;;0.30;0.30;;;;;;;8.63;100.00;99806.06;5114182;28;20443;-54
2023/10/31 05:41:22;;;;;;;0.20;0.20;;;;;;;8.61;100.00;99814.56;5115016;28;20104;-53
2023/10/31 05:43:48;;;;;;;0.25;0.25;;;;;;;8.59;100.00;99816.25;5115043;28;20038;-54
2023/10/31 05:46:14;;;;;;;0.28;0.28;;;;;;;8.60;100.00;99823.09;5114246;28;20031;-53
2023/10/31 05:48:41;;;;;;;0.20;0.20;;;;;;;8.58;100.00;99820.50;5114536;28;20438;-54
2023/10/31 05:51:18;;;;;;;0.30;0.30;;;;;;;8.59;100.00;99829.09;5114974;28;20031;-54
2023/10/31 05:53:45;;;;;;;0.28;0.28;;;;;;;8.59;100.00;99832.50;5114061;28;20023;-54
2023/10/31 05:56:15;;;;;;;0.25;0.25;;;;;;;8.59;100.00;99835.09;5115030;28;20042;-53
2023/10/31 05:58:41;;;;;;;0.30;0.30;;;;;;;8.60;100.00;99833.38;5113831;28;20084;-53
2023/10/31 06:01:10;;;;;;;0.30;0.30;;;;;;;8.60;100.00;99834.25;5114706;28;20029;-54
2023/10/31 06:03:36;;;;;;;0.30;0.30;;;;;;;8.60;100.00;99844.53;5114574;28;20031;-53
2023/10/31 06:06:01;;;;;;;0.30;0.30;;;;;;;8.63;100.00;99851.44;5114050;28;20019;-53
2023/10/31 06:08:29;;;;;;;0.20;0.20;;;;;;;8.62;100.00;99853.13;5114725;28;20463;-53
2023/10/31 06:10:56;;;;;;;0.30;0.30;;;;;;;8.62;100.00;99860.81;5114091;28;20429;-54
2023/10/31 06:13:22;;;;;;;0.20;0.20;;;;;;;8.63;100.00;99869.41;5113736;28;20028;-54
2023/10/31 06:15:47;;;;;;;0.30;0.30;;;;;;;8.62;100.00;99877.94;5114173;28;20026;-53
2023/10/31 06:18:13;;;;;;;0.20;0.20;;;;;;;8.62;100.00;99877.94;5114628;28;20031;-53
2023/10/31 06:20:39;;;;;;;0.20;0.20;;;;;;;8.62;100.00;99872.81;5113499;28;20028;-53
2023/10/31 06:23:05;;;;;;;0.20;0.20;;;;;;;8.61;100.00;99879.66;5114427;28;20143;-54
2023/10/31 06:25:30;;;;;;;0.22;0.22;;;;;;;8.61;100.00;99882.22;5114373;28;20028;-53
2023/10/31 06:27:55;;;;;;;0.25;0.25;;;;;;;8.58;100.00;99882.16;5113063;28;20042;-54
2023/10/31 06:30:20;;;;;;;0.20;0.20;;;;;;;8.57;100.00;99883.84;5113961;28;20383;-53
2023/10/31 06:32:46;;;;;;;0.30;0.30;;;;;;;8.56;100.00;99894.97;5109419;28;20016;-54
2023/10/31 06:35:11;;;;;;;0.30;0.30;;;;;;;8.55;100.00;99890.66;5092959;28;20024;-53
2023/10/31 06:37:37;;;;;;;0.30;0.30;;;;;;;8.52;100.00;99893.16;5092978;28;20020;-53
2023/10/31 06:40:04;;;;;;;0.20;0.20;;;;;;;8.53;100.00;99894.91;5093660;28;20475;-52
2023/10/31 06:42:30;;;;;;;0.20;0.20;;;;;;;8.55;100.00;99903.50;5092492;28;20062;-53
2023/10/31 06:44:55;;;;;;;0.30;0.30;;;;;;;8.53;100.00;99894.91;5093125;28;20111;-53
2023/10/31 06:47:20;;;;;;;0.30;0.30;;;;;;;8.53;100.00;99900.03;5093438;28;20020;-53
2023/10/31 06:49:46;;;;;;;0.30;0.30;;;;;;;8.53;100.00;99902.59;5092492;28;20028;-53
2023/10/31 06:52:11;;;;;;;0.20;0.20;;;;;;;8.53;100.00;99905.16;5093235;28;20056;-53
2023/10/31 06:54:36;;;;;;;0.20;0.20;;;;;;;8.53;100.00;99906.84;5092953;28;20024;-53
2023/10/31 06:57:02;;;;;;;0.20;0.20;;;;;;;8.55;100.00;99907.78;5092501;28;20024;-53
2023/10/31 06:59:29;;;;;;;0.20;0.20;;;;;;;8.55;100.00;99916.31;5093191;28;20028;-53
2023/10/31 07:01:54;;;;;;;0.30;0.30;;;;;;;8.59;100.00;99919.00;5092221;28;20483;-53
2023/10/31 07:04:19;;;;;;;0.20;0.20;;;;;;;8.60;100.00;99928.41;5093594;28;20039;-53
2023/10/31 07:06:45;;;;;;;0.25;0.25;;;;;;;8.56;100.00;99923.22;5092921;28;20024;-53
2023/10/31 07:09:10;;;;;;;0.30;0.30;;;;;;;8.59;100.00;99926.69;5092335;28;20024;-53
2023/10/31 07:11:35;;;;;;;0.22;0.22;;;;;;;8.60;100.00;99921.59;5092693;28;20032;-53
2023/10/31 07:14:04;;;;;;;0.30;0.30;;;;;;;8.59;100.00;99924.13;5092888;28;20031;-54
2023/10/31 07:16:32;;;;;;;0.30;0.30;;;;;;;8.62;100.00;99921.63;5092463;28;20037;-54
2023/10/31 07:18:57;;;;;;;;;;;;;;;8.70;100.00;99918.38;5093211;28;20102;-54
2023/10/31 07:21:22;;;;;;;0.27;0.27;;;;;;;8.67;100.00;99922.59;5092934;28;20393;-54
2023/10/31 07:23:48;;;;;;;0.20;0.20;;;;;;;8.69;100.00;99918.34;5091926;28;20276;-54
2023/10/31 07:26:13;;;;;;;0.30;0.30;;;;;;;8.69;100.00;99926.06;5092813;28;20028;-54
2023/10/31 07:28:38;;;;;;;0.28;0.28;;;;;;;8.72;100.00;99928.69;5092426;28;20107;-53
2023/10/31 07:31:04;;;;;;;0.30;0.30;;;;;;;8.71;100.00;99932.09;5091890;28;20089;-54
2023/10/31 07:33:30;;;;;;;0.30;0.30;;;;;;;8.70;100.00;99923.53;5092956;28;20107;-54
2023/10/31 07:35:55;;;;;;;0.22;0.22;;;;;;;8.68;100.00;99925.19;5092678;28;20131;-52
2023/10/31 07:38:20;;;;;;;0.20;0.20;;;;;;;8.65;100.00;99929.38;5091621;28;20438;-51
2023/10/31 07:40:45;;;;;;;0.30;0.30;;;;;;;8.60;100.00;99931.84;5092139;28;20031;-54
2023/10/31 07:43:11;;;;;;;0.30;0.30;;;;;;;8.57;100.00;99942.94;5092498;28;20396;-52
2023/10/31 07:45:36;;;;;;;0.30;0.30;;;;;;;8.56;100.00;99932.63;5091779;28;20064;-54
2023/10/31 07:48:01;;;;;;;0.30;0.30;;;;;;;8.55;100.00;99943.72;5093218;28;20039;-53
2023/10/31 07:50:27;;;;;;;0.30;0.30;;;;;;;8.54;100.00;99935.13;5096884;28;20089;-53
2023/10/31 07:52:53;;;;;;;0.30;0.30;;;;;;;8.55;100.00;99934.31;5095432;28;20030;-53
2023/10/31 07:55:18;;;;;;;0.30;0.30;;;;;;;8.57;100.00;99936.91;5096804;28;20024;-54
2023/10/31 07:57:43;;;;;;;0.20;0.20;;;;;;;8.61;100.00;99937.84;5096320;28;20028;-54
2023/10/31 08:00:11;;;;;;;0.30;0.30;;;;;;;8.67;100.00;99943.13;5096105;28;20024;-53
2023/10/31 08:02:36;;;;;;;0.28;0.28;;;;;;;8.73;100.00;99953.56;5096571;28;20390;-54
2023/10/31 08:05:01;;;;;;;0.20;0.20;;;;;;;8.76;100.00;99953.59;5096498;28;20477;-54
2023/10/31 08:07:29;;;;;;;0.20;0.20;;;;;;;8.85;100.00;99958.94;5095686;28;20028;-54
2023/10/31 08:09:58;;;;;;;0.30;0.30;;;;;;;8.97;100.00;99958.34;5096294;28;20040;-53
2023/10/31 08:12:23;;;;;;;0.30;0.30;;;;;;;9.00;100.00;99963.56;5095504;28;20084;-53
2023/10/31 08:14:48;;;;;;;0.30;0.30;;;;;;;9.05;100.00;99963.66;5096247;28;20417;-54
2023/10/31 08:17:14;;;;;;;0.30;0.30;;;;;;;9.11;100.00;99961.22;5096504;28;20031;-53
2023/10/31 08:19:39;;;;;;;0.20;0.20;;;;;;;9.16;100.00;99963.91;5095213;28;20020;-54
2023/10/31 08:22:04;;;;;;;0.30;0.30;;;;;;;9.26;100.00;99965.81;5096440;28;20432;-53
2023/10/31 08:24:30;;;;;;;0.30;0.30;;;;;;;9.28;100.00;99956.41;5096247;28;20027;-54
2023/10/31 08:26:55;;;;;;;0.28;0.28;;;;;;;9.33;100.00;99964.25;5095117;28;20111;-54
2023/10/31 08:29:21;;;;;;;0.30;0.30;;;;;;;9.41;100.00;99967.81;5096330;28;20032;-53
2023/10/31 08:31:46;;;;;;;0.25;0.25;;;;;;;9.41;100.00;99967.81;5095703;28;20031;-53
2023/10/31 08:34:11;;;;;;;0.20;0.20;;;;;;;9.44;100.00;99970.47;5095354;28;20533;-53
2023/10/31 08:36:37;;;;;;;0.30;0.30;;;;;;;9.49;100.00;99979.16;5095747;28;20481;-54
2023/10/31 08:39:03;;;;;;;0.28;0.28;;;;;;;9.51;100.00;99979.19;5095877;28;20020;-54
2023/10/31 08:41:28;;;;;;;0.30;0.30;;;;;;;9.43;100.00;99979.03;5094820;28;20426;-53
2023/10/31 08:43:54;;;;;;;0.30;0.30;;;;;;;9.48;100.00;99985.13;5094366;28;20024;-54
2023/10/31 08:46:19;;;;;;;0.28;0.28;;;;;;;9.44;100.00;99988.47;5094992;28;20056;-53
2023/10/31 08:48:44;;;;;;;0.22;0.22;;;;;;;9.51;100.00;99995.47;5093551;28;20107;-54
2023/10/31 08:51:10;;;;;;;0.20;0.20;;;;;;;9.52;100.00;99989.50;5094381;28;20028;-53
2023/10/31 08:53:35;;;;;;;0.25;0.25;;;;;;;9.63;100.00;99992.28;5094280;28;20519;-54
2023/10/31 08:56:00;;;;;;;0.20;0.20;;;;;;;9.64;100.00;100008.59;5093550;28;20103;-54
2023/10/31 08:58:28;;;;;;;0.20;0.20;;;;;;;9.64;100.00;100008.59;5094110;28;20099;-54
2023/10/31 09:00:53;;;;;;;0.22;0.22;;;;;;;9.66;100.00;100012.06;5093856;28;20030;-55
2023/10/31 09:03:19;;;;;;;0.20;0.20;;;;;;;9.78;100.00;100020.00;5093496;28;20024;-53
2023/10/31 09:05:44;;;;;;;0.30;0.30;;;;;;;9.82;100.00;100028.66;5093882;28;20483;-54
2023/10/31 09:08:10;;;;;;;0.30;0.30;;;;;;;9.81;100.00;100026.91;5094283;28;20167;-54
2023/10/31 09:10:39;;;;;;;0.20;0.20;;;;;;;9.85;100.00;100029.59;5095880;28;20058;-53
2023/10/31 09:13:05;;;;;;;0.20;0.20;;;;;;;9.84;100.00;100032.16;5114819;28;20097;-54
2023/10/31 09:15:30;;;;;;;0.30;0.30;;;;;;;9.96;100.00;100041.81;5114412;28;20471;-54
2023/10/31 09:17:55;;;;;;;0.20;0.20;;;;;;;9.85;100.00;100039.88;5113795;28;20028;-54
2023/10/31 09:20:20;;;;;;;0.22;0.22;;;;;;;9.84;100.00;100043.28;5114276;28;20019;-54
2023/10/31 09:22:46;;;;;;;0.20;0.20;;;;;;;9.86;100.00;100046.78;5113257;28;20032;-54
2023/10/31 09:25:11;;;;;;;0.20;0.20;;;;;;;9.89;100.00;100045.97;5114291;28;20027;-54
2023/10/31 09:27:38;;;;;;;0.20;0.20;;;;;;;9.97;100.00;100051.28;5113796;28;20398;-54
2023/10/31 09:30:05;;;;;;;0.30;0.30;;;;;;;10.02;100.00;100062.53;5113738;28;20034;-54
2023/10/31 09:32:30;;;;;;;0.20;0.20;;;;;;;10.31;100.00;100062.19;5113571;28;20035;-54
2023/10/31 09:34:55;;;;;;;0.20;0.20;;;;;;;10.46;100.00;100064.22;5113806;28;20387;-54
2023/10/31 09:37:21;;;;;;;0.30;0.30;;;;;;;10.37;100.00;100070.91;5113300;28;20028;-54
2023/10/31 09:39:46;;;;;;;0.30;0.30;;;;;;;10.25;100.00;100080.09;5113699;28;20455;-53
2023/10/31 09:42:11;;;;;;;0.20;0.20;;;;;;;10.18;100.00;100090.28;5077898;28;1037124;-54
2023/10/31 09:44:36;;;;;;;0.20;0.20;;;;;;;10.46;100.00;100071.94;5113967;28;20475;-54
2023/10/31 09:47:02;;;;;;;0.20;0.20;;;;;;;10.90;100.00;100078.66;5115047;28;20020;-55
2023/10/31 09:49:28;;;;;;;0.20;0.20;;;;;;;10.96;100.00;100079.63;5115036;28;20106;-54
2023/10/31 09:51:54;;;;;;;0.20;0.20;;;;;;;10.91;100.00;100085.53;5113911;28;20050;-54
2023/10/31 09:54:20;;;;;;;0.20;0.20;;;;;;;11.02;100.00;100082.28;5114816;28;20020;-54
2023/10/31 09:56:45;;;;;;;0.20;0.20;;;;;;;11.18;100.00;100085.09;5114392;28;20145;-54
2023/10/31 09:59:10;;;;;;;0.20;0.20;;;;;;;10.99;100.00;100096.88;5114188;28;20031;-53
2023/10/31 10:01:36;;;;;;;0.20;0.20;;;;;;;10.71;100.00;100092.09;5114637;28;20020;-55
2023/10/31 10:04:02;;;;;;;0.20;0.20;;;;;;;10.57;100.00;100103.03;5114737;28;20135;-53
2023/10/31 10:06:27;;;;;;;0.20;0.20;;;;;;;10.36;100.00;100100.09;5113813;28;20020;-54
2023/10/31 10:08:52;;;;;;;0.20;0.20;;;;;;;10.27;100.00;100110.19;5114221;28;20112;-54
2023/10/31 10:11:18;;;;;;;0.20;0.20;;;;;;;10.16;100.00;100112.56;5113648;28;20034;-54
2023/10/31 10:13:44;;;;;;;0.30;0.30;;;;;;;10.03;100.00;100114.03;5113704;28;20027;-53
2023/10/31 10:16:09;;;;;;;0.20;0.20;;;;;;;9.99;100.00;100119.06;5114501;28;20023;-53
2023/10/31 10:18:39;;;;;;;0.20;0.20;;;;;;;9.97;100.00;100129.34;5114328;28;20024;-54
2023/10/31 10:21:05;;;;;;;0.20;0.20;;;;;;;10.03;100.00;100128.59;5113631;28;20050;-54
2023/10/31 10:23:31;;;;;;;0.17;0.17;;;;;;;10.13;100.00;100133.09;5114279;28;20494;-54
2023/10/31 10:25:58;;;;;;;0.20;0.20;;;;;;;10.05;100.00;100134.66;5113155;28;20016;-54
2023/10/31 10:28:25;;;;;;;0.20;0.20;;;;;;;10.12;100.00;100133.97;5114403;28;20065;-54
2023/10/31 10:30:51;;;;;;;0.30;0.30;;;;;;;10.25;100.00;100136.75;5113927;28;20054;-54
2023/10/31 10:33:17;;;;;;;0.20;0.20;;;;;;;10.52;100.00;100133.84;5113622;28;20023;-55
2023/10/31 10:35:44;;;;;;;0.28;0.28;;;;;;;10.63;100.00;100132.34;5113869;28;20070;-52
2023/10/31 10:38:13;;;;;;;0.20;0.20;;;;;;;10.68;100.00;100143.59;5113773;28;20020;-53
2023/10/31 10:40:41;;;;;;;0.20;0.20;;;;;;;10.64;100.00;100152.13;5112773;28;20399;-52
2023/10/31 10:43:13;;;;;;;0.20;0.20;;;;;;;10.69;100.00;100149.63;5113613;28;20047;-53
2023/10/31 10:45:42;;;;;;;0.20;0.20;;;;;;;10.63;100.00;100149.53;5113539;28;20031;-52
2023/10/31 10:48:11;;;;;;;0.20;0.20;;;;;;;10.55;100.00;100154.53;5111313;28;20027;-53
2023/10/31 10:50:41;;;;;;;0.20;0.20;;;;;;;10.36;100.00;100158.47;5113040;28;20383;-53
2023/10/31 10:53:13;;;;;;;0.25;0.25;;;;;;;10.28;100.00;100157.44;5114058;28;20023;-53
2023/10/31 10:55:44;;;;;;;0.20;0.20;;;;;;;10.21;100.00;100162.47;5112768;28;20023;-55
2023/10/31 10:58:35;;;;;;;0.20;0.20;;;;;;;10.25;100.00;100157.34;5113915;28;20027;-55
2023/10/31 11:01:02;;;;;;;0.20;0.20;;;;;;;10.31;100.00;100158.34;5113284;28;20379;-55
2023/10/31 11:03:29;;;;;;;0.20;0.20;;;;;;;10.39;100.00;100155.94;5113710;28;20031;-55
2023/10/31 11:05:55;;;;;;;0.20;0.20;;;;;;;10.59;100.00;100163.16;5113354;28;20040;-55
2023/10/31 11:08:23;;;;;;;0.20;0.20;;;;;;;10.89;100.00;100160.28;5112825;28;20051;-50
2023/10/31 11:10:49;;;;;;;0.30;0.30;;;;;;;10.98;100.00;100168.16;5113159;28;20110;-55
2023/10/31 11:13:15;;;;;;;0.10;0.10;;;;;;;10.82;100.00;100161.91;5113589;28;20104;-55
2023/10/31 11:15:42;;;;;;;0.20;0.20;;;;;;;10.65;100.00;100169.34;5112342;28;20103;-54
2023/10/31 11:18:07;;;;;;;0.20;0.20;;;;;;;10.57;100.00;100170.03;5113330;28;20448;-52
2023/10/31 11:20:34;;;;;;;0.20;0.20;;;;;;;10.48;100.00;100168.13;5113350;28;20031;-52
2023/10/31 11:23:04;;;;;;;0.20;0.20;;;;;;;10.47;100.00;100169.84;5112546;28;20019;-51
2023/10/31 11:25:31;;;;;;;0.20;0.20;;;;;;;10.68;100.00;100171.09;5113356;28;20106;-52